sensor_id;sensor_type;location;lat;lon;timestamp;P1;durP1;ratioP1;P2;durP2;ratioP2
33802;SDS011;20110;53.120;5.786;2023-03-31T00:01:39;48.95;;;7.20;;
33802;SDS011;20110;53.120;5.786;2023-03-31T00:04:06;47.88;;;7.07;;
33802;SDS011;20110;53.120;5.786;2023-03-31T00:06:37;45.97;;;6.13;;
33802;SDS011;20110;53.120;5.786;2023-03-31T00:09:15;61.92;;;6.85;;
33802;SDS011;20110;53.120;5.786;2023-03-31T00:11:43;45.35;;;7.25;;
33802;SDS011;20110;53.120;5.786;2023-03-31T00:14:09;48.83;;;7.25;;
33802;SDS011;20110;53.120;5.786;2023-03-31T00:16:37;52.10;;;7.57;;
33802;SDS011;20110;53.120;5.786;2023-03-31T00:19:04;24.90;;;6.25;;
33802;SDS011;20110;53.120;5.786;2023-03-31T00:21:34;37.38;;;5.72;;
33802;SDS011;20110;53.120;5.786;2023-03-31T00:24:04;41.70;;;6.70;;
33802;SDS011;20110;53.120;5.786;2023-03-31T00:26:32;39.65;;;7.65;;
33802;SDS011;20110;53.120;5.786;2023-03-31T00:28:59;57.33;;;6.95;;
33802;SDS011;20110;53.120;5.786;2023-03-31T00:31:26;39.22;;;5.97;;
33802;SDS011;20110;53.120;5.786;2023-03-31T00:33:53;55.75;;;7.50;;
33802;SDS011;20110;53.120;5.786;2023-03-31T00:36:20;45.35;;;5.05;;
33802;SDS011;20110;53.120;5.786;2023-03-31T00:38:51;35.95;;;6.30;;
33802;SDS011;20110;53.120;5.786;2023-03-31T00:41:20;35.65;;;5.35;;
33802;SDS011;20110;53.120;5.786;2023-03-31T00:46:56;43.60;;;5.50;;
33802;SDS011;20110;53.120;5.786;2023-03-31T00:49:40;41.60;;;5.95;;
33802;SDS011;20110;53.120;5.786;2023-03-31T00:52:17;44.03;;;6.10;;
33802;SDS011;20110;53.120;5.786;2023-03-31T00:54:51;53.00;;;5.68;;
33802;SDS011;20110;53.120;5.786;2023-03-31T00:57:23;45.65;;;6.07;;
33802;SDS011;20110;53.120;5.786;2023-03-31T00:59:57;31.52;;;5.47;;
33802;SDS011;20110;53.120;5.786;2023-03-31T01:02:48;45.67;;;5.45;;
33802;SDS011;20110;53.120;5.786;2023-03-31T01:05:25;51.50;;;6.53;;
33802;SDS011;20110;53.120;5.786;2023-03-31T01:08:27;61.58;;;6.53;;
33802;SDS011;20110;53.120;5.786;2023-03-31T01:10:55;54.53;;;7.05;;
33802;SDS011;20110;53.120;5.786;2023-03-31T01:13:28;45.30;;;6.15;;
33802;SDS011;20110;53.120;5.786;2023-03-31T01:15:56;32.50;;;5.07;;
33802;SDS011;20110;53.120;5.786;2023-03-31T01:18:22;44.33;;;6.00;;
33802;SDS011;20110;53.120;5.786;2023-03-31T01:20:58;33.88;;;6.13;;
33802;SDS011;20110;53.120;5.786;2023-03-31T01:26:28;27.85;;;5.05;;
33802;SDS011;20110;53.120;5.786;2023-03-31T01:29:32;33.03;;;6.80;;
33802;SDS011;20110;53.120;5.786;2023-03-31T01:41:25;30.25;;;8.90;;
33802;SDS011;20110;53.120;5.786;2023-03-31T01:46:42;30.33;;;6.35;;
33802;SDS011;20110;53.120;5.786;2023-03-31T01:49:43;31.77;;;6.22;;
33802;SDS011;20110;53.120;5.786;2023-03-31T01:57:40;22.58;;;5.05;;
33802;SDS011;20110;53.120;5.786;2023-03-31T02:00:19;29.80;;;5.10;;
33802;SDS011;20110;53.120;5.786;2023-03-31T02:05:51;35.50;;;6.28;;
33802;SDS011;20110;53.120;5.786;2023-03-31T02:08:22;28.65;;;5.10;;
33802;SDS011;20110;53.120;5.786;2023-03-31T02:10:55;18.77;;;4.43;;
33802;SDS011;20110;53.120;5.786;2023-03-31T02:13:24;25.25;;;4.90;;
33802;SDS011;20110;53.120;5.786;2023-03-31T02:15:54;30.67;;;3.80;;
33802;SDS011;20110;53.120;5.786;2023-03-31T02:18:30;42.78;;;6.03;;
33802;SDS011;20110;53.120;5.786;2023-03-31T02:21:02;44.60;;;4.43;;
33802;SDS011;20110;53.120;5.786;2023-03-31T02:23:30;25.95;;;4.75;;
33802;SDS011;20110;53.120;5.786;2023-03-31T02:28:47;31.00;;;4.97;;
33802;SDS011;20110;53.120;5.786;2023-03-31T02:31:20;21.42;;;4.10;;
33802;SDS011;20110;53.120;5.786;2023-03-31T02:33:54;33.45;;;4.85;;
33802;SDS011;20110;53.120;5.786;2023-03-31T02:36:20;34.38;;;4.20;;
33802;SDS011;20110;53.120;5.786;2023-03-31T02:38:54;31.13;;;4.13;;
33802;SDS011;20110;53.120;5.786;2023-03-31T02:41:27;23.05;;;4.80;;
33802;SDS011;20110;53.120;5.786;2023-03-31T02:43:53;27.75;;;4.63;;
33802;SDS011;20110;53.120;5.786;2023-03-31T02:46:20;29.45;;;4.68;;
33802;SDS011;20110;53.120;5.786;2023-03-31T02:48:50;37.20;;;5.35;;
33802;SDS011;20110;53.120;5.786;2023-03-31T02:54:27;38.38;;;4.78;;
33802;SDS011;20110;53.120;5.786;2023-03-31T03:05:58;30.23;;;4.95;;
33802;SDS011;20110;53.120;5.786;2023-03-31T03:17:09;24.42;;;4.43;;
33802;SDS011;20110;53.120;5.786;2023-03-31T03:19:49;21.88;;;3.67;;
33802;SDS011;20110;53.120;5.786;2023-03-31T03:22:20;56.13;;;5.63;;
33802;SDS011;20110;53.120;5.786;2023-03-31T03:24:47;32.83;;;4.45;;
33802;SDS011;20110;53.120;5.786;2023-03-31T03:27:13;24.38;;;4.20;;
33802;SDS011;20110;53.120;5.786;2023-03-31T03:29:40;19.27;;;3.70;;
33802;SDS011;20110;53.120;5.786;2023-03-31T03:32:07;16.67;;;3.30;;
33802;SDS011;20110;53.120;5.786;2023-03-31T03:34:34;27.50;;;4.43;;
33802;SDS011;20110;53.120;5.786;2023-03-31T03:37:01;24.77;;;4.05;;
33802;SDS011;20110;53.120;5.786;2023-03-31T03:39:26;23.85;;;4.57;;
33802;SDS011;20110;53.120;5.786;2023-03-31T03:41:52;26.35;;;4.50;;
33802;SDS011;20110;53.120;5.786;2023-03-31T03:44:18;25.08;;;4.75;;
33802;SDS011;20110;53.120;5.786;2023-03-31T03:46:44;27.88;;;6.03;;
33802;SDS011;20110;53.120;5.786;2023-03-31T03:49:10;31.05;;;5.63;;
33802;SDS011;20110;53.120;5.786;2023-03-31T03:51:36;18.48;;;5.38;;
33802;SDS011;20110;53.120;5.786;2023-03-31T03:54:02;25.60;;;5.65;;
33802;SDS011;20110;53.120;5.786;2023-03-31T03:56:28;16.42;;;4.90;;
33802;SDS011;20110;53.120;5.786;2023-03-31T03:58:54;20.48;;;5.80;;
33802;SDS011;20110;53.120;5.786;2023-03-31T04:01:19;21.17;;;5.57;;
33802;SDS011;20110;53.120;5.786;2023-03-31T04:03:45;24.25;;;6.32;;
33802;SDS011;20110;53.120;5.786;2023-03-31T04:06:11;25.58;;;6.90;;
33802;SDS011;20110;53.120;5.786;2023-03-31T04:08:37;21.85;;;5.75;;
33802;SDS011;20110;53.120;5.786;2023-03-31T04:11:03;17.92;;;6.22;;
33802;SDS011;20110;53.120;5.786;2023-03-31T04:13:41;16.83;;;5.22;;
33802;SDS011;20110;53.120;5.786;2023-03-31T04:16:07;22.38;;;6.45;;
33802;SDS011;20110;53.120;5.786;2023-03-31T04:18:34;24.05;;;6.68;;
33802;SDS011;20110;53.120;5.786;2023-03-31T04:21:07;24.48;;;6.60;;
33802;SDS011;20110;53.120;5.786;2023-03-31T04:23:36;25.40;;;6.30;;
33802;SDS011;20110;53.120;5.786;2023-03-31T04:26:10;27.60;;;7.18;;
33802;SDS011;20110;53.120;5.786;2023-03-31T04:28:38;29.83;;;7.88;;
33802;SDS011;20110;53.120;5.786;2023-03-31T04:31:09;43.17;;;8.38;;
33802;SDS011;20110;53.120;5.786;2023-03-31T04:33:40;25.90;;;7.65;;
33802;SDS011;20110;53.120;5.786;2023-03-31T04:36:10;28.10;;;6.68;;
33802;SDS011;20110;53.120;5.786;2023-03-31T04:38:41;24.35;;;6.88;;
33802;SDS011;20110;53.120;5.786;2023-03-31T04:41:14;28.52;;;5.88;;
33802;SDS011;20110;53.120;5.786;2023-03-31T04:43:41;24.08;;;6.68;;
33802;SDS011;20110;53.120;5.786;2023-03-31T04:46:07;34.95;;;7.57;;
33802;SDS011;20110;53.120;5.786;2023-03-31T04:48:33;34.95;;;7.65;;
33802;SDS011;20110;53.120;5.786;2023-03-31T04:51:00;17.88;;;6.20;;
33802;SDS011;20110;53.120;5.786;2023-03-31T04:53:26;31.88;;;7.43;;
33802;SDS011;20110;53.120;5.786;2023-03-31T04:55:52;25.92;;;7.53;;
33802;SDS011;20110;53.120;5.786;2023-03-31T04:58:18;22.42;;;6.20;;
33802;SDS011;20110;53.120;5.786;2023-03-31T05:00:44;30.10;;;8.27;;
33802;SDS011;20110;53.120;5.786;2023-03-31T05:03:10;27.92;;;8.13;;
33802;SDS011;20110;53.120;5.786;2023-03-31T05:05:36;29.35;;;8.25;;
33802;SDS011;20110;53.120;5.786;2023-03-31T05:08:02;29.80;;;7.60;;
33802;SDS011;20110;53.120;5.786;2023-03-31T05:10:28;26.55;;;8.88;;
33802;SDS011;20110;53.120;5.786;2023-03-31T05:12:55;28.13;;;7.68;;
33802;SDS011;20110;53.120;5.786;2023-03-31T05:15:21;33.13;;;7.90;;
33802;SDS011;20110;53.120;5.786;2023-03-31T05:17:50;19.45;;;7.03;;
33802;SDS011;20110;53.120;5.786;2023-03-31T05:20:17;23.30;;;6.95;;
33802;SDS011;20110;53.120;5.786;2023-03-31T05:22:44;26.02;;;7.95;;
33802;SDS011;20110;53.120;5.786;2023-03-31T05:25:11;18.02;;;8.55;;
33802;SDS011;20110;53.120;5.786;2023-03-31T05:27:42;32.22;;;8.88;;
33802;SDS011;20110;53.120;5.786;2023-03-31T05:30:11;19.80;;;8.63;;
33802;SDS011;20110;53.120;5.786;2023-03-31T05:32:38;27.77;;;7.78;;
33802;SDS011;20110;53.120;5.786;2023-03-31T05:35:04;13.52;;;6.60;;
33802;SDS011;20110;53.120;5.786;2023-03-31T05:37:31;12.93;;;6.25;;
33802;SDS011;20110;53.120;5.786;2023-03-31T05:39:58;26.30;;;7.63;;
33802;SDS011;20110;53.120;5.786;2023-03-31T05:42:24;27.73;;;8.55;;
33802;SDS011;20110;53.120;5.786;2023-03-31T05:44:50;26.73;;;8.20;;
33802;SDS011;20110;53.120;5.786;2023-03-31T05:47:16;26.75;;;8.80;;
33802;SDS011;20110;53.120;5.786;2023-03-31T05:49:42;16.83;;;8.50;;
33802;SDS011;20110;53.120;5.786;2023-03-31T05:52:08;29.25;;;9.65;;
33802;SDS011;20110;53.120;5.786;2023-03-31T05:54:36;23.52;;;8.75;;
33802;SDS011;20110;53.120;5.786;2023-03-31T05:57:02;20.13;;;8.80;;
33802;SDS011;20110;53.120;5.786;2023-03-31T05:59:28;36.10;;;9.25;;
33802;SDS011;20110;53.120;5.786;2023-03-31T06:01:53;36.25;;;9.73;;
33802;SDS011;20110;53.120;5.786;2023-03-31T06:04:19;19.00;;;7.82;;
33802;SDS011;20110;53.120;5.786;2023-03-31T06:06:45;21.73;;;8.80;;
33802;SDS011;20110;53.120;5.786;2023-03-31T06:09:14;26.40;;;8.82;;
33802;SDS011;20110;53.120;5.786;2023-03-31T06:11:41;21.60;;;12.57;;
33802;SDS011;20110;53.120;5.786;2023-03-31T06:14:07;16.35;;;8.20;;
33802;SDS011;20110;53.120;5.786;2023-03-31T06:16:33;18.35;;;8.80;;
33802;SDS011;20110;53.120;5.786;2023-03-31T06:18:59;14.77;;;8.07;;
33802;SDS011;20110;53.120;5.786;2023-03-31T06:21:25;11.02;;;6.35;;
33802;SDS011;20110;53.120;5.786;2023-03-31T06:23:50;16.63;;;8.40;;
33802;SDS011;20110;53.120;5.786;2023-03-31T06:26:21;20.15;;;7.20;;
33802;SDS011;20110;53.120;5.786;2023-03-31T06:28:46;19.40;;;7.68;;
33802;SDS011;20110;53.120;5.786;2023-03-31T06:31:14;12.40;;;7.03;;
33802;SDS011;20110;53.120;5.786;2023-03-31T06:33:43;13.80;;;6.20;;
33802;SDS011;20110;53.120;5.786;2023-03-31T06:36:10;13.45;;;7.20;;
33802;SDS011;20110;53.120;5.786;2023-03-31T06:38:39;8.15;;;5.47;;
33802;SDS011;20110;53.120;5.786;2023-03-31T06:41:06;10.90;;;5.25;;
33802;SDS011;20110;53.120;5.786;2023-03-31T06:43:33;16.42;;;7.65;;
33802;SDS011;20110;53.120;5.786;2023-03-31T06:45:59;12.15;;;6.18;;
33802;SDS011;20110;53.120;5.786;2023-03-31T06:48:25;13.55;;;9.20;;
33802;SDS011;20110;53.120;5.786;2023-03-31T06:50:52;16.33;;;10.75;;
33802;SDS011;20110;53.120;5.786;2023-03-31T06:53:19;15.98;;;10.02;;
33802;SDS011;20110;53.120;5.786;2023-03-31T06:55:46;15.18;;;7.90;;
33802;SDS011;20110;53.120;5.786;2023-03-31T06:58:12;8.73;;;7.75;;
33802;SDS011;20110;53.120;5.786;2023-03-31T07:00:38;14.00;;;10.75;;
33802;SDS011;20110;53.120;5.786;2023-03-31T07:03:05;16.50;;;13.30;;
33802;SDS011;20110;53.120;5.786;2023-03-31T07:05:32;6.18;;;4.50;;
33802;SDS011;20110;53.120;5.786;2023-03-31T07:07:59;13.80;;;7.20;;
33802;SDS011;20110;53.120;5.786;2023-03-31T07:10:27;16.42;;;11.93;;
33802;SDS011;20110;53.120;5.786;2023-03-31T07:12:55;14.50;;;9.65;;
33802;SDS011;20110;53.120;5.786;2023-03-31T07:15:21;19.20;;;9.73;;
33802;SDS011;20110;53.120;5.786;2023-03-31T07:17:49;10.57;;;5.00;;
33802;SDS011;20110;53.120;5.786;2023-03-31T07:20:18;7.43;;;3.17;;
33802;SDS011;20110;53.120;5.786;2023-03-31T07:22:44;20.73;;;3.50;;
33802;SDS011;20110;53.120;5.786;2023-03-31T07:25:14;7.97;;;5.60;;
33802;SDS011;20110;53.120;5.786;2023-03-31T07:27:41;9.20;;;4.65;;
33802;SDS011;20110;53.120;5.786;2023-03-31T07:30:11;6.03;;;4.55;;
33802;SDS011;20110;53.120;5.786;2023-03-31T07:32:42;6.30;;;3.08;;
33802;SDS011;20110;53.120;5.786;2023-03-31T07:35:11;9.05;;;2.75;;
33802;SDS011;20110;53.120;5.786;2023-03-31T07:37:38;7.57;;;2.72;;
33802;SDS011;20110;53.120;5.786;2023-03-31T07:40:08;7.43;;;3.38;;
33802;SDS011;20110;53.120;5.786;2023-03-31T07:42:48;9.32;;;3.08;;
33802;SDS011;20110;53.120;5.786;2023-03-31T07:45:16;10.93;;;6.25;;
33802;SDS011;20110;53.120;5.786;2023-03-31T07:47:44;11.00;;;4.80;;
33802;SDS011;20110;53.120;5.786;2023-03-31T07:50:11;18.30;;;5.25;;
33802;SDS011;20110;53.120;5.786;2023-03-31T07:52:38;15.70;;;5.88;;
33802;SDS011;20110;53.120;5.786;2023-03-31T07:55:04;13.27;;;7.15;;
33802;SDS011;20110;53.120;5.786;2023-03-31T07:57:32;9.95;;;4.93;;
33802;SDS011;20110;53.120;5.786;2023-03-31T07:59:59;12.15;;;6.68;;
33802;SDS011;20110;53.120;5.786;2023-03-31T08:02:26;11.48;;;6.82;;
33802;SDS011;20110;53.120;5.786;2023-03-31T08:04:52;7.85;;;3.97;;
33802;SDS011;20110;53.120;5.786;2023-03-31T08:07:17;10.70;;;5.22;;
33802;SDS011;20110;53.120;5.786;2023-03-31T08:09:44;13.85;;;5.53;;
33802;SDS011;20110;53.120;5.786;2023-03-31T08:12:11;9.82;;;5.18;;
33802;SDS011;20110;53.120;5.786;2023-03-31T08:14:38;16.77;;;11.27;;
33802;SDS011;20110;53.120;5.786;2023-03-31T08:17:04;13.15;;;6.38;;
33802;SDS011;20110;53.120;5.786;2023-03-31T08:19:31;12.77;;;5.10;;
33802;SDS011;20110;53.120;5.786;2023-03-31T08:21:57;11.38;;;3.38;;
33802;SDS011;20110;53.120;5.786;2023-03-31T08:24:22;11.23;;;5.30;;
33802;SDS011;20110;53.120;5.786;2023-03-31T08:26:48;11.95;;;5.03;;
33802;SDS011;20110;53.120;5.786;2023-03-31T08:29:14;10.23;;;3.63;;
33802;SDS011;20110;53.120;5.786;2023-03-31T08:31:40;9.10;;;4.82;;
33802;SDS011;20110;53.120;5.786;2023-03-31T08:34:06;14.55;;;11.45;;
33802;SDS011;20110;53.120;5.786;2023-03-31T08:36:32;17.05;;;5.30;;
33802;SDS011;20110;53.120;5.786;2023-03-31T08:38:58;10.35;;;6.35;;
33802;SDS011;20110;53.120;5.786;2023-03-31T08:47:17;10.90;;;4.13;;
33802;SDS011;20110;53.120;5.786;2023-03-31T08:49:49;9.93;;;6.63;;
33802;SDS011;20110;53.120;5.786;2023-03-31T08:52:25;9.05;;;6.18;;
33802;SDS011;20110;53.120;5.786;2023-03-31T08:55:26;12.38;;;3.45;;
33802;SDS011;20110;53.120;5.786;2023-03-31T09:00:57;10.17;;;4.10;;
33802;SDS011;20110;53.120;5.786;2023-03-31T09:06:11;7.30;;;4.47;;
33802;SDS011;20110;53.120;5.786;2023-03-31T09:08:46;13.27;;;3.53;;
33802;SDS011;20110;53.120;5.786;2023-03-31T09:11:13;14.18;;;5.10;;
33802;SDS011;20110;53.120;5.786;2023-03-31T09:17:25;3.97;;;2.00;;
33802;SDS011;20110;53.120;5.786;2023-03-31T09:20:00;8.10;;;4.43;;
33802;SDS011;20110;53.120;5.786;2023-03-31T09:22:39;5.20;;;3.83;;
33802;SDS011;20110;53.120;5.786;2023-03-31T09:25:25;6.05;;;1.83;;
33802;SDS011;20110;53.120;5.786;2023-03-31T09:27:58;4.68;;;2.45;;
33802;SDS011;20110;53.120;5.786;2023-03-31T09:30:31;4.90;;;2.80;;
33802;SDS011;20110;53.120;5.786;2023-03-31T09:33:24;5.18;;;2.35;;
33802;SDS011;20110;53.120;5.786;2023-03-31T09:35:59;8.82;;;2.17;;
33802;SDS011;20110;53.120;5.786;2023-03-31T09:38:27;7.30;;;2.22;;
33802;SDS011;20110;53.120;5.786;2023-03-31T09:40:56;4.82;;;2.13;;
33802;SDS011;20110;53.120;5.786;2023-03-31T09:43:24;6.57;;;3.70;;
33802;SDS011;20110;53.120;5.786;2023-03-31T09:45:53;5.15;;;2.17;;
33802;SDS011;20110;53.120;5.786;2023-03-31T09:48:21;5.55;;;2.72;;
33802;SDS011;20110;53.120;5.786;2023-03-31T09:51:03;6.28;;;2.70;;
33802;SDS011;20110;53.120;5.786;2023-03-31T09:53:39;9.98;;;2.97;;
33802;SDS011;20110;53.120;5.786;2023-03-31T09:56:30;6.53;;;4.57;;
33802;SDS011;20110;53.120;5.786;2023-03-31T09:59:11;5.97;;;2.75;;
33802;SDS011;20110;53.120;5.786;2023-03-31T10:01:55;7.28;;;3.72;;
33802;SDS011;20110;53.120;5.786;2023-03-31T10:04:27;10.70;;;3.67;;
33802;SDS011;20110;53.120;5.786;2023-03-31T10:06:57;5.10;;;4.45;;
33802;SDS011;20110;53.120;5.786;2023-03-31T10:09:26;7.05;;;3.10;;
33802;SDS011;20110;53.120;5.786;2023-03-31T10:12:05;6.95;;;3.70;;
33802;SDS011;20110;53.120;5.786;2023-03-31T10:14:45;7.80;;;3.35;;
33802;SDS011;20110;53.120;5.786;2023-03-31T10:17:19;11.68;;;3.42;;
33802;SDS011;20110;53.120;5.786;2023-03-31T10:22:42;11.25;;;4.85;;
33802;SDS011;20110;53.120;5.786;2023-03-31T10:25:15;16.23;;;5.35;;
33802;SDS011;20110;53.120;5.786;2023-03-31T10:27:48;11.38;;;2.65;;
33802;SDS011;20110;53.120;5.786;2023-03-31T10:30:21;11.05;;;3.75;;
33802;SDS011;20110;53.120;5.786;2023-03-31T10:32:50;12.50;;;4.40;;
33802;SDS011;20110;53.120;5.786;2023-03-31T10:35:21;23.48;;;4.15;;
33802;SDS011;20110;53.120;5.786;2023-03-31T10:37:53;14.00;;;6.60;;
33802;SDS011;20110;53.120;5.786;2023-03-31T10:40:26;9.10;;;3.65;;
33802;SDS011;20110;53.120;5.786;2023-03-31T10:43:00;13.80;;;3.75;;
33802;SDS011;20110;53.120;5.786;2023-03-31T10:45:35;9.85;;;6.70;;
33802;SDS011;20110;53.120;5.786;2023-03-31T10:48:15;7.78;;;5.45;;
33802;SDS011;20110;53.120;5.786;2023-03-31T10:50:47;14.30;;;3.78;;
33802;SDS011;20110;53.120;5.786;2023-03-31T10:53:14;9.27;;;3.35;;
33802;SDS011;20110;53.120;5.786;2023-03-31T11:01:12;14.25;;;5.93;;
33802;SDS011;20110;53.120;5.786;2023-03-31T11:06:51;14.27;;;5.60;;
33802;SDS011;20110;53.120;5.786;2023-03-31T11:12:56;7.38;;;5.90;;
33802;SDS011;20110;53.120;5.786;2023-03-31T11:15:38;11.40;;;4.22;;
33802;SDS011;20110;53.120;5.786;2023-03-31T11:18:53;13.63;;;7.00;;
33802;SDS011;20110;53.120;5.786;2023-03-31T11:25:33;9.10;;;3.33;;
33802;SDS011;20110;53.120;5.786;2023-03-31T11:28:48;8.35;;;3.72;;
33802;SDS011;20110;53.120;5.786;2023-03-31T11:37:34;9.43;;;2.35;;
33802;SDS011;20110;53.120;5.786;2023-03-31T11:43:20;8.35;;;6.80;;
33802;SDS011;20110;53.120;5.786;2023-03-31T11:51:25;7.70;;;2.47;;
33802;SDS011;20110;53.120;5.786;2023-03-31T11:57:01;6.30;;;2.22;;
33802;SDS011;20110;53.120;5.786;2023-03-31T11:59:38;8.18;;;2.78;;
33802;SDS011;20110;53.120;5.786;2023-03-31T12:02:17;10.55;;;3.03;;
33802;SDS011;20110;53.120;5.786;2023-03-31T12:04:52;12.13;;;5.97;;
33802;SDS011;20110;53.120;5.786;2023-03-31T12:07:23;17.98;;;3.80;;
33802;SDS011;20110;53.120;5.786;2023-03-31T12:10:00;9.05;;;3.85;;
33802;SDS011;20110;53.120;5.786;2023-03-31T12:12:38;10.80;;;6.05;;
33802;SDS011;20110;53.120;5.786;2023-03-31T12:15:17;14.40;;;4.10;;
33802;SDS011;20110;53.120;5.786;2023-03-31T12:18:08;14.13;;;4.13;;
33802;SDS011;20110;53.120;5.786;2023-03-31T12:20:49;14.68;;;3.28;;
33802;SDS011;20110;53.120;5.786;2023-03-31T12:23:22;12.05;;;4.90;;
33802;SDS011;20110;53.120;5.786;2023-03-31T12:26:31;18.75;;;3.58;;
33802;SDS011;20110;53.120;5.786;2023-03-31T12:32:42;13.60;;;3.85;;
33802;SDS011;20110;53.120;5.786;2023-03-31T12:35:57;15.55;;;3.97;;
33802;SDS011;20110;53.120;5.786;2023-03-31T12:47:23;9.05;;;2.45;;
33802;SDS011;20110;53.120;5.786;2023-03-31T12:56:03;21.30;;;3.63;;
33802;SDS011;20110;53.120;5.786;2023-03-31T13:11:45;11.05;;;3.00;;
33802;SDS011;20110;53.120;5.786;2023-03-31T13:16:47;12.68;;;4.00;;
33802;SDS011;20110;53.120;5.786;2023-03-31T13:19:32;10.65;;;3.65;;
33802;SDS011;20110;53.120;5.786;2023-03-31T13:22:01;10.40;;;6.15;;
33802;SDS011;20110;53.120;5.786;2023-03-31T13:24:29;7.53;;;4.70;;
33802;SDS011;20110;53.120;5.786;2023-03-31T13:26:58;15.38;;;3.80;;
33802;SDS011;20110;53.120;5.786;2023-03-31T13:29:56;5.25;;;3.08;;
33802;SDS011;20110;53.120;5.786;2023-03-31T13:32:23;7.45;;;3.08;;
33802;SDS011;20110;53.120;5.786;2023-03-31T13:37:29;6.85;;;1.77;;
33802;SDS011;20110;53.120;5.786;2023-03-31T13:40:24;4.82;;;4.05;;
33802;SDS011;20110;53.120;5.786;2023-03-31T13:52:00;7.70;;;2.85;;
33802;SDS011;20110;53.120;5.786;2023-03-31T14:00:31;8.35;;;3.78;;
33802;SDS011;20110;53.120;5.786;2023-03-31T14:08:49;6.95;;;2.85;;
33802;SDS011;20110;53.120;5.786;2023-03-31T14:11:28;6.22;;;3.55;;
33802;SDS011;20110;53.120;5.786;2023-03-31T14:14:00;5.03;;;3.63;;
33802;SDS011;20110;53.120;5.786;2023-03-31T14:16:28;7.93;;;2.80;;
33802;SDS011;20110;53.120;5.786;2023-03-31T14:22:02;4.93;;;3.95;;
33802;SDS011;20110;53.120;5.786;2023-03-31T14:25:10;5.25;;;4.78;;
33802;SDS011;20110;53.120;5.786;2023-03-31T14:37:09;3.13;;;1.63;;
33802;SDS011;20110;53.120;5.786;2023-03-31T14:39:45;8.02;;;2.17;;
33802;SDS011;20110;53.120;5.786;2023-03-31T14:42:18;6.68;;;4.40;;
33802;SDS011;20110;53.120;5.786;2023-03-31T14:44:56;6.95;;;2.22;;
33802;SDS011;20110;53.120;5.786;2023-03-31T14:47:29;5.57;;;1.50;;
33802;SDS011;20110;53.120;5.786;2023-03-31T14:49:59;6.13;;;2.05;;
33802;SDS011;20110;53.120;5.786;2023-03-31T14:52:38;2.83;;;1.50;;
33802;SDS011;20110;53.120;5.786;2023-03-31T14:55:14;2.30;;;1.50;;
33802;SDS011;20110;53.120;5.786;2023-03-31T14:57:42;13.75;;;4.65;;
33802;SDS011;20110;53.120;5.786;2023-03-31T15:00:13;3.58;;;2.97;;
33802;SDS011;20110;53.120;5.786;2023-03-31T15:02:46;2.42;;;1.88;;
33802;SDS011;20110;53.120;5.786;2023-03-31T15:05:27;5.95;;;1.60;;
33802;SDS011;20110;53.120;5.786;2023-03-31T15:08:06;2.80;;;1.33;;
33802;SDS011;20110;53.120;5.786;2023-03-31T15:11:01;3.15;;;1.67;;
33802;SDS011;20110;53.120;5.786;2023-03-31T15:13:39;3.40;;;3.20;;
33802;SDS011;20110;53.120;5.786;2023-03-31T15:21:36;8.10;;;2.72;;
33802;SDS011;20110;53.120;5.786;2023-03-31T15:26:05;7.90;;;1.80;;
33802;SDS011;20110;53.120;5.786;2023-03-31T15:31:05;7.50;;;1.50;;
33802;SDS011;20110;53.120;5.786;2023-03-31T15:33:32;6.95;;;1.67;;
33802;SDS011;20110;53.120;5.786;2023-03-31T15:36:05;7.10;;;2.03;;
33802;SDS011;20110;53.120;5.786;2023-03-31T15:38:32;8.70;;;1.92;;
33802;SDS011;20110;53.120;5.786;2023-03-31T15:41:56;8.60;;;2.08;;
33802;SDS011;20110;53.120;5.786;2023-03-31T15:44:26;6.15;;;1.90;;
33802;SDS011;20110;53.120;5.786;2023-03-31T15:47:23;7.97;;;1.90;;
33802;SDS011;20110;53.120;5.786;2023-03-31T15:49:57;6.97;;;1.60;;
33802;SDS011;20110;53.120;5.786;2023-03-31T15:52:34;8.32;;;2.03;;
33802;SDS011;20110;53.120;5.786;2023-03-31T15:57:48;8.70;;;2.73;;
33802;SDS011;20110;53.120;5.786;2023-03-31T16:02:56;4.45;;;2.08;;
33802;SDS011;20110;53.120;5.786;2023-03-31T16:05:32;6.63;;;2.50;;
33802;SDS011;20110;53.120;5.786;2023-03-31T16:08:14;4.78;;;1.60;;
33802;SDS011;20110;53.120;5.786;2023-03-31T16:11:04;5.88;;;2.05;;
33802;SDS011;20110;53.120;5.786;2023-03-31T16:13:40;4.88;;;2.38;;
33802;SDS011;20110;53.120;5.786;2023-03-31T16:16:14;5.30;;;2.17;;
33802;SDS011;20110;53.120;5.786;2023-03-31T16:18:48;7.25;;;2.33;;
33802;SDS011;20110;53.120;5.786;2023-03-31T16:21:21;8.30;;;2.60;;
33802;SDS011;20110;53.120;5.786;2023-03-31T16:26:23;8.35;;;2.20;;
33802;SDS011;20110;53.120;5.786;2023-03-31T16:28:52;6.18;;;2.38;;
33802;SDS011;20110;53.120;5.786;2023-03-31T16:31:28;5.97;;;2.83;;
33802;SDS011;20110;53.120;5.786;2023-03-31T16:34:02;5.55;;;3.58;;
33802;SDS011;20110;53.120;5.786;2023-03-31T16:36:31;5.53;;;2.70;;
33802;SDS011;20110;53.120;5.786;2023-03-31T16:38:58;11.32;;;3.72;;
33802;SDS011;20110;53.120;5.786;2023-03-31T16:41:26;7.30;;;3.10;;
33802;SDS011;20110;53.120;5.786;2023-03-31T16:43:53;11.75;;;3.00;;
33802;SDS011;20110;53.120;5.786;2023-03-31T16:46:19;9.50;;;2.80;;
33802;SDS011;20110;53.120;5.786;2023-03-31T16:48:46;7.20;;;2.97;;
33802;SDS011;20110;53.120;5.786;2023-03-31T16:51:13;6.70;;;2.38;;
33802;SDS011;20110;53.120;5.786;2023-03-31T16:53:39;12.32;;;2.90;;
33802;SDS011;20110;53.120;5.786;2023-03-31T16:56:06;6.05;;;2.20;;
33802;SDS011;20110;53.120;5.786;2023-03-31T16:58:33;7.03;;;2.65;;
33802;SDS011;20110;53.120;5.786;2023-03-31T17:01:02;8.02;;;2.40;;
33802;SDS011;20110;53.120;5.786;2023-03-31T17:03:30;7.90;;;2.58;;
33802;SDS011;20110;53.120;5.786;2023-03-31T17:05:57;11.70;;;2.50;;
33802;SDS011;20110;53.120;5.786;2023-03-31T17:08:28;9.07;;;3.17;;
33802;SDS011;20110;53.120;5.786;2023-03-31T17:11:03;13.38;;;2.85;;
33802;SDS011;20110;53.120;5.786;2023-03-31T17:13:36;10.13;;;4.30;;
33802;SDS011;20110;53.120;5.786;2023-03-31T17:16:04;8.30;;;2.53;;
33802;SDS011;20110;53.120;5.786;2023-03-31T17:18:30;5.95;;;2.42;;
33802;SDS011;20110;53.120;5.786;2023-03-31T17:21:06;7.57;;;1.98;;
33802;SDS011;20110;53.120;5.786;2023-03-31T17:23:38;7.63;;;1.77;;
33802;SDS011;20110;53.120;5.786;2023-03-31T17:26:04;4.93;;;1.98;;
33802;SDS011;20110;53.120;5.786;2023-03-31T17:28:33;6.45;;;2.17;;
33802;SDS011;20110;53.120;5.786;2023-03-31T17:31:00;7.05;;;1.90;;
33802;SDS011;20110;53.120;5.786;2023-03-31T17:33:26;2.70;;;1.63;;
33802;SDS011;20110;53.120;5.786;2023-03-31T17:35:56;2.85;;;1.85;;
33802;SDS011;20110;53.120;5.786;2023-03-31T17:38:25;4.75;;;1.70;;
33802;SDS011;20110;53.120;5.786;2023-03-31T17:40:51;4.28;;;1.73;;
33802;SDS011;20110;53.120;5.786;2023-03-31T17:43:18;2.03;;;1.10;;
33802;SDS011;20110;53.120;5.786;2023-03-31T17:45:44;5.75;;;1.35;;
33802;SDS011;20110;53.120;5.786;2023-03-31T17:48:10;4.57;;;1.65;;
33802;SDS011;20110;53.120;5.786;2023-03-31T17:50:36;4.82;;;1.38;;
33802;SDS011;20110;53.120;5.786;2023-03-31T17:53:02;3.47;;;2.10;;
33802;SDS011;20110;53.120;5.786;2023-03-31T17:55:33;6.15;;;1.92;;
33802;SDS011;20110;53.120;5.786;2023-03-31T17:58:02;11.45;;;1.80;;
33802;SDS011;20110;53.120;5.786;2023-03-31T18:00:29;4.65;;;1.80;;
33802;SDS011;20110;53.120;5.786;2023-03-31T18:02:55;10.68;;;2.42;;
33802;SDS011;20110;53.120;5.786;2023-03-31T18:05:20;3.97;;;1.80;;
33802;SDS011;20110;53.120;5.786;2023-03-31T18:07:46;3.92;;;2.40;;
33802;SDS011;20110;53.120;5.786;2023-03-31T18:10:12;5.00;;;2.17;;
33802;SDS011;20110;53.120;5.786;2023-03-31T18:12:38;6.10;;;1.95;;
33802;SDS011;20110;53.120;5.786;2023-03-31T18:15:05;7.07;;;2.42;;